createdAt,value
2018-04-14T00:00:17.549Z,48.10
2018-04-14T00:02:45.985Z,56.17
2018-04-14T00:05:16.557Z,53.37
2018-04-14T00:07:45.066Z,50.53
2018-04-14T00:10:14.028Z,48.13
2018-04-14T00:12:42.262Z,55.27
2018-04-14T00:15:10.447Z,52.47
2018-04-14T00:17:41.698Z,53.50
2018-04-14T00:20:10.834Z,52.40
2018-04-14T00:22:40.304Z,53.25
2018-04-14T00:25:09.033Z,55.90
2018-04-14T00:27:37.283Z,48.97
2018-04-14T00:30:06.491Z,51.37
2018-04-14T00:32:35.925Z,53.92
2018-04-14T00:35:04.666Z,51.40
2018-04-14T00:37:32.988Z,55.03
2018-04-14T00:40:01.163Z,56.42
2018-04-14T00:42:29.568Z,57.25
2018-04-14T00:44:59.440Z,58.65
2018-04-14T00:47:27.582Z,52.72
2018-04-14T00:49:56.512Z,53.90
2018-04-14T00:52:24.873Z,55.03
2018-04-14T00:54:58.227Z,56.50
2018-04-14T00:57:26.559Z,57.53
2018-04-14T00:59:54.788Z,55.57
2018-04-14T01:02:23.789Z,61.45
2018-04-14T01:04:52.010Z,59.17
2018-04-14T01:07:20.194Z,59.50
2018-04-14T01:09:48.477Z,60.50
2018-04-14T01:12:21.559Z,53.03
2018-04-14T01:14:50.887Z,59.43
2018-04-14T01:17:19.387Z,52.70
2018-04-14T01:19:47.715Z,54.17
2018-04-14T01:22:16.651Z,55.87
2018-04-14T01:24:47.648Z,54.50
2018-04-14T01:27:17.747Z,54.72
2018-04-14T01:29:46.004Z,55.23
2018-04-14T01:32:14.272Z,58.42
2018-04-14T01:34:42.492Z,57.70
2018-04-14T01:37:11.550Z,60.80
2018-04-14T01:39:40.805Z,62.03
2018-04-14T01:42:09.061Z,54.37
2018-04-14T01:44:37.459Z,56.03
2018-04-14T01:47:06.147Z,55.35
2018-04-14T01:49:34.879Z,58.60
2018-04-14T01:52:03.634Z,72.85
2018-04-14T01:54:31.824Z,67.10
2018-04-14T01:57:00.434Z,68.17
2018-04-14T01:59:30.098Z,65.10
2018-04-14T02:01:58.811Z,70.20
2018-04-14T02:04:27.065Z,71.00
2018-04-14T02:06:57.802Z,71.82
2018-04-14T02:09:26.507Z,72.87
2018-04-14T02:11:54.727Z,77.43
2018-04-14T02:14:22.944Z,72.87
2018-04-14T02:16:51.565Z,77.57
2018-04-14T02:19:21.274Z,77.03
2018-04-14T02:21:50.236Z,78.90
2018-04-14T02:24:21.876Z,77.87
2018-04-14T02:26:51.588Z,72.60
2018-04-14T02:29:20.510Z,71.33
2018-04-14T03:08:21.917Z,71.00
2018-04-14T03:10:51.140Z,72.50
2018-04-14T03:13:19.373Z,75.93
2018-04-14T03:15:47.627Z,76.17
2018-04-14T03:18:15.823Z,76.93
2018-04-14T03:20:44.309Z,73.30
2018-04-14T03:23:12.521Z,75.50
2018-04-14T03:25:51.793Z,78.53
2018-04-14T03:28:22.566Z,82.37
2018-04-14T03:30:50.806Z,73.57
2018-04-14T03:33:21.475Z,72.97
2018-04-14T03:35:49.642Z,81.00
2018-04-14T03:38:17.844Z,76.47
2018-04-14T03:40:46.595Z,76.93
2018-04-14T03:43:14.731Z,75.32
2018-04-14T03:45:43.352Z,89.70
2018-04-14T03:48:11.513Z,86.78
2018-04-14T03:50:39.668Z,77.43
2018-04-14T03:53:07.805Z,87.93
2018-04-14T03:55:58.333Z,79.13
2018-04-14T03:58:26.485Z,75.10
2018-04-14T04:00:55.052Z,74.10
2018-04-14T04:03:25.978Z,78.85
2018-04-14T04:05:54.664Z,77.60
2018-04-14T04:08:23.557Z,79.10
2018-04-14T04:10:52.272Z,91.47
2018-04-14T04:13:21.509Z,81.97
2018-04-14T04:15:49.679Z,79.37
2018-04-14T04:18:29.945Z,76.72
2018-04-14T04:21:10.144Z,87.53
2018-04-14T04:23:52.510Z,86.50
2018-04-14T04:26:20.789Z,88.70
2018-04-14T04:28:49.115Z,81.47
2018-04-14T04:31:18.035Z,81.20
2018-04-14T04:33:46.204Z,83.47
2018-04-14T04:39:14.377Z,91.82
2018-04-14T04:41:42.620Z,90.28
2018-04-14T04:44:11.115Z,81.80
2018-04-14T04:46:40.075Z,83.95
2018-04-14T04:49:08.229Z,86.22
2018-04-14T04:51:37.416Z,87.45
2018-04-14T04:54:05.669Z,85.20
2018-04-14T04:56:35.509Z,78.43
2018-04-14T04:59:03.832Z,78.57
2018-04-14T05:01:32.044Z,82.77
2018-04-14T05:04:00.194Z,78.10
2018-04-14T05:06:28.394Z,78.03
2018-04-14T05:08:57.107Z,78.47
2018-04-14T05:11:25.741Z,68.63
2018-04-14T05:13:53.892Z,71.97
2018-04-14T05:16:22.870Z,75.05
2018-04-14T05:18:51.064Z,65.25
2018-04-14T05:21:19.219Z,75.83
2018-04-14T05:23:47.496Z,72.97
2018-04-14T05:26:15.710Z,69.30
2018-04-14T05:28:43.845Z,71.40
2018-04-14T05:31:12.047Z,75.10
2018-04-14T05:33:40.230Z,70.57
2018-04-14T05:36:09.220Z,72.67
2018-04-14T05:38:38.190Z,69.37
2018-04-14T05:41:07.105Z,68.37
2018-04-14T05:43:35.327Z,66.65
2018-04-14T05:46:03.522Z,67.60
2018-04-14T05:48:31.611Z,70.13
2018-04-14T05:51:00.625Z,64.18
2018-04-14T05:53:28.790Z,67.28
2018-04-14T05:55:57.083Z,64.68
2018-04-14T05:58:25.343Z,59.87
2018-04-14T06:00:54.280Z,61.30
2018-04-14T06:03:22.405Z,56.85
2018-04-14T06:05:51.403Z,54.38
2018-04-14T06:08:19.512Z,57.47
2018-04-14T06:10:48.063Z,57.67
2018-04-14T06:13:16.310Z,52.30
2018-04-14T06:15:45.701Z,52.97
2018-04-14T06:18:14.645Z,52.95
2018-04-14T06:20:42.826Z,51.85
2018-04-14T06:23:10.966Z,45.70
2018-04-14T06:25:39.191Z,54.53
2018-04-14T06:28:08.124Z,49.63
2018-04-14T06:30:37.160Z,53.67
2018-04-14T06:33:05.551Z,47.07
2018-04-14T06:35:33.901Z,49.10
2018-04-14T06:38:02.639Z,48.42
2018-04-14T06:40:30.860Z,48.90
2018-04-14T06:42:59.686Z,45.25
2018-04-14T06:45:28.448Z,53.30
2018-04-14T06:47:58.845Z,47.67
2018-04-14T06:50:30.051Z,47.00
2018-04-14T06:52:58.175Z,44.60
2018-04-14T06:55:26.605Z,45.40
2018-04-14T06:57:55.162Z,42.85
2018-04-14T07:00:23.375Z,41.90
2018-04-14T07:02:52.351Z,43.15
2018-04-14T07:05:20.556Z,41.08
2018-04-14T07:07:48.770Z,45.53
2018-04-14T07:10:17.018Z,43.10
2018-04-14T07:12:45.313Z,42.70
2018-04-14T07:15:13.479Z,36.63
2018-04-14T07:17:41.617Z,34.43
2018-04-14T07:20:09.743Z,32.90
2018-04-14T07:22:39.282Z,32.13
2018-04-14T07:25:07.463Z,32.90
2018-04-14T07:27:35.636Z,34.13
2018-04-14T07:30:04.481Z,37.17
2018-04-14T07:32:32.753Z,38.45
2018-04-14T07:35:01.021Z,37.93
2018-04-14T07:37:29.199Z,37.67
2018-04-14T07:39:58.186Z,38.30
2018-04-14T07:42:28.325Z,42.42
2018-04-14T07:44:56.490Z,38.57
2018-04-14T07:47:24.924Z,41.47
2018-04-14T07:49:53.041Z,41.75
2018-04-14T07:52:21.796Z,39.65
2018-04-14T07:54:50.086Z,39.63
2018-04-14T07:57:19.101Z,42.15
2018-04-14T07:59:47.239Z,44.20
2018-04-14T08:02:16.177Z,42.10
2018-04-14T08:04:45.097Z,43.87
2018-04-14T08:07:13.319Z,44.57
2018-04-14T08:09:42.001Z,48.50
2018-04-14T08:12:11.983Z,48.27
2018-04-14T08:14:40.148Z,44.78
2018-04-14T08:17:08.296Z,46.47
2018-04-14T08:19:40.375Z,46.15
2018-04-14T08:22:08.621Z,44.23
2018-04-14T08:24:37.733Z,46.03
2018-04-14T08:27:05.853Z,46.88
2018-04-14T08:29:36.764Z,51.10
2018-04-14T08:32:06.239Z,47.73
2018-04-14T08:34:34.398Z,48.97
2018-04-14T08:37:03.333Z,51.17
2018-04-14T08:39:32.283Z,53.72
2018-04-14T08:42:00.443Z,50.72
2018-04-14T08:44:29.029Z,48.60
2018-04-14T08:46:57.147Z,51.57
2018-04-14T08:49:25.644Z,51.90
2018-04-14T08:51:54.623Z,47.80
2018-04-14T08:54:22.793Z,46.80
2018-04-14T08:56:51.588Z,45.93
2018-04-14T08:59:19.793Z,50.60
2018-04-14T09:01:47.942Z,47.50
2018-04-14T09:04:17.053Z,47.50
2018-04-14T09:06:46.504Z,46.90
2018-04-14T09:09:15.981Z,50.28
2018-04-14T09:11:44.266Z,45.73
2018-04-14T09:14:12.548Z,47.53
2018-04-14T09:16:40.777Z,45.90
2018-04-14T09:19:10.679Z,47.38
2018-04-14T09:21:40.363Z,51.65
2018-04-14T09:24:08.575Z,45.77
2018-04-14T09:26:36.715Z,50.55
2018-04-14T09:29:04.950Z,56.60
2018-04-14T09:31:33.209Z,48.07
2018-04-14T09:34:02.081Z,49.13
2018-04-14T09:36:30.990Z,48.40
2018-04-14T09:38:59.165Z,52.13
2018-04-14T09:41:32.294Z,50.40
2018-04-14T09:44:00.583Z,53.13
2018-04-14T09:46:28.756Z,51.30
2018-04-14T09:48:56.953Z,54.85
2018-04-14T09:51:25.465Z,51.07
2018-04-14T09:53:53.647Z,51.65
2018-04-14T09:56:21.815Z,51.37
2018-04-14T09:58:49.996Z,52.05
2018-04-14T10:01:23.992Z,53.20
2018-04-14T10:03:52.150Z,60.72
2018-04-14T10:06:20.424Z,57.17
2018-04-14T10:08:48.605Z,62.00
2018-04-14T10:11:17.493Z,58.60
2018-04-14T10:13:46.026Z,53.63
2018-04-14T10:16:14.978Z,54.67
2018-04-14T10:18:43.103Z,61.20
2018-04-14T10:21:11.273Z,60.10
2018-04-14T10:23:39.649Z,58.63
2018-04-14T10:26:07.886Z,63.47
2018-04-14T10:28:36.081Z,57.67
2018-04-14T10:31:04.721Z,59.38
2018-04-14T10:33:33.589Z,63.80
2018-04-14T10:36:01.797Z,60.70
2018-04-14T10:38:30.190Z,63.50
2018-04-14T10:40:58.322Z,62.57
2018-04-14T10:43:26.527Z,67.27
2018-04-14T10:45:54.728Z,67.97
2018-04-14T10:48:23.034Z,65.20
2018-04-14T10:50:51.302Z,61.67
2018-04-14T10:53:19.473Z,62.63
2018-04-14T10:55:47.685Z,72.50
2018-04-14T10:58:16.666Z,62.53
2018-04-14T11:00:45.743Z,63.30
2018-04-14T11:03:14.710Z,61.28
2018-04-14T11:05:42.865Z,64.65
2018-04-14T11:08:11.110Z,68.00
2018-04-14T11:10:39.495Z,66.30
2018-04-14T11:13:08.065Z,67.53
2018-04-14T11:15:36.974Z,65.00
2018-04-14T11:18:05.272Z,63.90
2018-04-14T11:20:33.902Z,62.13
2018-04-14T11:23:02.228Z,58.20
2018-04-14T11:25:30.471Z,65.77
2018-04-14T11:27:59.169Z,60.05
2018-04-14T11:30:27.582Z,64.47
2018-04-14T11:32:55.789Z,57.15
2018-04-14T11:35:24.654Z,63.13
2018-04-14T11:37:52.875Z,59.50
2018-04-14T11:40:21.050Z,55.37
2018-04-14T11:42:49.370Z,58.20
2018-04-14T11:45:18.542Z,59.88
2018-04-14T11:47:47.659Z,53.78
2018-04-14T11:50:16.082Z,58.83
2018-04-14T11:52:44.337Z,57.13
2018-04-14T11:55:12.572Z,54.53
2018-04-14T11:57:40.832Z,57.23
2018-04-14T12:00:09.053Z,56.97
2018-04-14T12:02:37.321Z,56.35
2018-04-14T12:05:07.008Z,60.33
2018-04-14T12:07:35.112Z,57.57
2018-04-14T12:10:03.232Z,54.27
2018-04-14T12:12:31.496Z,59.38
2018-04-14T12:14:59.630Z,58.15
2018-04-14T12:17:27.829Z,53.83
2018-04-14T12:19:56.090Z,56.37
2018-04-14T12:22:25.045Z,55.10
2018-04-14T12:27:40.560Z,52.17
2018-04-14T12:30:09.479Z,52.60
2018-04-14T12:32:37.867Z,50.15
2018-04-14T12:35:06.198Z,48.47
2018-04-14T12:37:34.553Z,50.10
2018-04-14T12:40:02.709Z,47.83
2018-04-14T12:42:30.995Z,53.57
2018-04-14T12:44:59.179Z,53.83
2018-04-14T12:47:27.523Z,50.90
2018-04-14T12:49:55.726Z,53.00
2018-04-14T12:52:23.970Z,52.78
2018-04-14T12:54:52.438Z,49.03
2018-04-14T12:57:21.305Z,43.03
2018-04-14T12:59:49.481Z,44.17
2018-04-14T13:02:19.464Z,48.27
2018-04-14T13:04:50.149Z,46.00
2018-04-14T13:07:20.343Z,42.47
2018-04-14T13:09:48.919Z,40.65
2018-04-14T13:12:17.063Z,50.93
2018-04-14T13:14:45.469Z,36.60
2018-04-14T13:17:14.391Z,40.07
2018-04-14T13:19:43.148Z,42.17
2018-04-14T13:22:12.527Z,44.33
2018-04-14T13:24:42.078Z,39.50
2018-04-14T13:27:11.673Z,40.58
2018-04-14T13:29:39.854Z,41.63
2018-04-14T13:32:08.176Z,46.37
2018-04-14T13:34:37.176Z,47.10
2018-04-14T13:37:05.472Z,48.40
2018-04-14T13:39:36.496Z,39.40
2018-04-14T13:42:05.525Z,41.63
2018-04-14T13:44:33.736Z,42.23
2018-04-14T13:47:03.179Z,38.30
2018-04-14T13:49:32.489Z,37.97
2018-04-14T13:52:01.171Z,42.77
2018-04-14T13:54:29.436Z,41.70
2018-04-14T13:56:57.673Z,42.13
2018-04-14T13:59:25.778Z,41.53
2018-04-14T14:01:54.013Z,41.75
2018-04-14T14:04:22.385Z,40.25
2018-04-14T14:06:50.544Z,39.45
2018-04-14T14:09:18.708Z,38.47
2018-04-14T14:11:46.909Z,36.93
2018-04-14T14:14:15.094Z,37.00
2018-04-14T14:16:44.591Z,39.23
2018-04-14T14:19:12.915Z,39.80
2018-04-14T14:21:41.839Z,41.17
2018-04-14T14:24:10.110Z,42.97
2018-04-14T14:26:38.324Z,41.23
2018-04-14T14:29:06.532Z,37.03
2018-04-14T14:31:34.628Z,35.55
2018-04-14T14:34:02.783Z,29.50
2018-04-14T14:36:31.697Z,32.55
2018-04-14T14:38:59.836Z,33.03
2018-04-14T14:41:28.810Z,34.30
2018-04-14T14:43:57.055Z,34.85
2018-04-14T14:46:25.257Z,35.13
2018-04-14T14:48:53.470Z,37.03
2018-04-14T14:51:21.619Z,34.97
2018-04-14T14:53:49.886Z,33.90
2018-04-14T14:56:18.149Z,30.30
2018-04-14T14:58:46.849Z,31.23
2018-04-14T15:01:15.193Z,31.47
2018-04-14T15:03:44.716Z,35.83
2018-04-14T15:06:12.915Z,41.87
2018-04-14T15:08:41.940Z,36.37
2018-04-14T15:11:10.119Z,35.27
2018-04-14T15:13:38.319Z,31.45
2018-04-14T15:16:06.462Z,34.15
2018-04-14T15:18:35.087Z,36.03
2018-04-14T15:21:03.703Z,35.33
2018-04-14T15:23:32.608Z,34.87
2018-04-14T15:26:00.733Z,32.90
2018-04-14T15:28:28.980Z,41.03
2018-04-14T15:30:57.189Z,34.40
2018-04-14T15:33:26.365Z,36.40
2018-04-14T15:35:54.526Z,35.92
2018-04-14T15:38:23.270Z,39.83
2018-04-14T15:40:51.590Z,34.00
2018-04-14T15:43:19.928Z,34.33
2018-04-14T15:45:48.096Z,35.53
2018-04-14T15:48:17.548Z,31.47
2018-04-14T15:50:45.739Z,32.93
2018-04-14T15:53:14.794Z,35.50
2018-04-14T15:55:43.161Z,37.50
2018-04-14T15:58:11.392Z,35.92
2018-04-14T16:00:40.360Z,38.08
2018-04-14T16:03:10.463Z,38.53
2018-04-14T16:05:40.035Z,36.70
2018-04-14T16:08:08.742Z,37.92
2018-04-14T16:10:36.877Z,32.95
2018-04-14T16:13:06.448Z,35.40
2018-04-14T16:15:34.758Z,33.87
2018-04-14T16:18:02.925Z,43.40
2018-04-14T16:20:32.326Z,35.33
2018-04-14T16:23:00.484Z,34.90
2018-04-14T16:25:28.585Z,36.80
2018-04-14T16:27:56.742Z,35.97
2018-04-14T16:30:25.785Z,33.25
2018-04-14T16:32:54.127Z,33.45
2018-04-14T16:35:22.280Z,38.57
2018-04-14T16:37:50.554Z,37.83
2018-04-14T16:40:18.732Z,33.15
2018-04-14T16:42:48.175Z,36.20
2018-04-14T16:45:16.320Z,32.90
2018-04-14T16:47:45.200Z,33.93
2018-04-14T16:50:14.547Z,37.40
2018-04-14T16:52:42.684Z,33.90
2018-04-14T16:55:12.448Z,35.13
2018-04-14T16:57:46.219Z,36.00
2018-04-14T17:00:15.293Z,38.60
2018-04-14T17:02:43.645Z,32.67
2018-04-14T17:05:12.035Z,34.72
2018-04-14T17:07:40.981Z,33.70
2018-04-14T17:10:09.263Z,35.40
2018-04-14T17:12:38.252Z,33.42
2018-04-14T17:15:06.446Z,33.67
2018-04-14T17:17:34.630Z,35.13
2018-04-14T17:20:02.835Z,37.03
2018-04-14T17:22:30.957Z,33.42
2018-04-14T17:24:59.210Z,35.20
2018-04-14T17:27:27.402Z,38.53
2018-04-14T17:29:55.652Z,38.43
2018-04-14T17:32:23.778Z,35.83
2018-04-14T17:34:52.853Z,32.17
2018-04-14T17:37:20.977Z,36.10
2018-04-14T17:39:49.100Z,38.78
2018-04-14T17:42:17.267Z,37.28
2018-04-14T17:44:45.971Z,37.63
2018-04-14T17:47:14.191Z,37.90
2018-04-14T17:49:42.352Z,38.70
2018-04-14T17:52:10.462Z,38.42
2018-04-14T17:54:38.743Z,34.07
2018-04-14T17:57:07.339Z,34.00
2018-04-14T17:59:37.304Z,34.70
2018-04-14T18:02:05.491Z,34.97
2018-04-14T18:04:34.017Z,37.53
2018-04-14T18:07:02.226Z,38.28
2018-04-14T18:09:31.618Z,35.37
2018-04-14T18:11:59.794Z,37.90
2018-04-14T18:14:28.015Z,39.08
2018-04-14T18:16:56.176Z,38.45
2018-04-14T18:19:24.289Z,39.03
2018-04-14T18:21:53.539Z,36.20
2018-04-14T18:24:22.591Z,37.40
2018-04-14T18:26:50.768Z,38.93
2018-04-14T18:29:18.999Z,39.30
2018-04-14T18:31:48.360Z,34.87
2018-04-14T18:34:16.537Z,40.70
2018-04-14T18:36:44.748Z,37.47
2018-04-14T18:39:12.940Z,38.10
2018-04-14T18:41:41.811Z,36.60
2018-04-14T18:44:09.967Z,37.80
2018-04-14T18:46:38.104Z,39.03
2018-04-14T18:49:07.092Z,39.03
2018-04-14T18:51:35.903Z,36.87
2018-04-14T18:54:09.074Z,41.23
2018-04-14T18:56:37.242Z,37.97
2018-04-14T18:59:05.458Z,34.72
2018-04-14T19:01:34.694Z,38.10
2018-04-14T19:04:02.856Z,37.70
2018-04-14T19:06:31.065Z,43.13
2018-04-14T19:08:59.933Z,37.53
2018-04-14T19:11:28.119Z,40.50
2018-04-14T19:13:56.348Z,39.58
2018-04-14T19:16:25.506Z,35.88
2018-04-14T19:18:53.716Z,42.62
2018-04-14T19:21:21.832Z,41.07
2018-04-14T19:23:50.093Z,46.40
2018-04-14T19:26:19.018Z,40.95
2018-04-14T19:28:47.208Z,42.92
2018-04-14T19:31:15.409Z,43.33
2018-04-14T19:33:44.603Z,45.45
2018-04-14T19:36:12.740Z,44.70
2018-04-14T19:38:40.907Z,43.60
2018-04-14T19:41:09.039Z,47.33
2018-04-14T19:43:38.617Z,47.10
2018-04-14T19:46:07.588Z,45.58
2018-04-14T19:48:35.484Z,43.83
2018-04-14T19:51:03.638Z,45.90
2018-04-14T19:53:31.865Z,46.57
2018-04-14T19:56:00.042Z,45.72
2018-04-14T19:58:28.972Z,49.65
2018-04-14T20:00:57.312Z,45.97
2018-04-14T20:03:26.315Z,49.93
2018-04-14T20:05:54.407Z,48.20
2018-04-14T20:08:22.648Z,46.80
2018-04-14T20:10:50.799Z,50.75
2018-04-14T20:13:20.257Z,49.55
2018-04-14T20:15:48.470Z,51.10
2018-04-14T20:18:16.658Z,50.73
2018-04-14T20:20:44.911Z,52.17
2018-04-14T20:23:13.109Z,50.07
2018-04-14T20:25:41.649Z,50.65
2018-04-14T20:28:09.808Z,51.07
2018-04-14T20:30:37.925Z,52.43
2018-04-14T20:33:06.084Z,56.33
2018-04-14T20:35:34.213Z,55.20
2018-04-14T20:38:02.450Z,51.40
2018-04-14T20:40:31.342Z,56.93
2018-04-14T20:43:00.326Z,54.13
2018-04-14T20:45:29.334Z,55.80
2018-04-14T20:47:57.992Z,53.85
2018-04-14T20:50:27.002Z,58.50
2018-04-14T20:52:56.055Z,56.83
2018-04-14T20:55:24.152Z,55.70
2018-04-14T20:57:53.055Z,56.15
2018-04-14T21:00:21.935Z,56.47
2018-04-14T21:02:50.948Z,57.08
2018-04-14T21:05:19.292Z,57.53
2018-04-14T21:07:47.733Z,56.43
2018-04-14T21:10:16.692Z,60.12
2018-04-14T21:12:44.927Z,57.85
2018-04-14T21:15:13.103Z,57.73
2018-04-14T21:17:41.290Z,56.10
2018-04-14T21:20:10.212Z,56.45
2018-04-14T21:22:38.335Z,60.33
2018-04-14T21:25:06.512Z,58.60
2018-04-14T21:27:34.596Z,62.00
2018-04-14T21:30:02.816Z,61.13
2018-04-14T21:32:30.919Z,57.45
2018-04-14T21:34:59.141Z,59.30
2018-04-14T21:37:27.333Z,59.80
2018-04-14T21:39:55.561Z,60.73
2018-04-14T21:42:24.491Z,61.95
2018-04-14T21:44:53.233Z,59.90
2018-04-14T21:47:21.550Z,62.23
2018-04-14T21:49:49.658Z,60.00
2018-04-14T21:52:17.864Z,58.70
2018-04-14T21:54:46.325Z,55.85
2018-04-14T21:57:14.501Z,61.88
2018-04-14T21:59:42.706Z,61.33
2018-04-14T22:02:11.608Z,60.05
2018-04-14T22:04:40.185Z,61.30
2018-04-14T22:07:08.394Z,59.43
2018-04-14T22:09:36.612Z,60.90
2018-04-14T22:12:07.154Z,65.35
2018-04-14T22:14:35.288Z,59.75
2018-04-14T22:17:05.316Z,62.70
2018-04-14T22:19:33.539Z,62.77
2018-04-14T22:22:01.713Z,61.97
2018-04-14T22:24:29.827Z,63.30
2018-04-14T22:26:57.970Z,63.00
2018-04-14T22:29:26.205Z,64.70
2018-04-14T22:31:55.176Z,63.13
2018-04-14T22:34:24.459Z,65.35
2018-04-14T22:36:52.674Z,62.40
2018-04-14T22:39:20.782Z,67.40
2018-04-14T22:41:48.981Z,67.20
2018-04-14T22:44:17.119Z,63.85
2018-04-14T22:46:45.352Z,61.13
2018-04-14T22:49:14.096Z,65.23
2018-04-14T22:51:42.212Z,63.80
2018-04-14T22:54:10.370Z,68.93
2018-04-14T22:56:38.529Z,64.03
2018-04-14T22:59:06.703Z,59.73
2018-04-14T23:01:34.879Z,63.73
2018-04-14T23:04:03.058Z,61.57
2018-04-14T23:06:32.556Z,63.95
2018-04-14T23:09:00.727Z,63.15
2018-04-14T23:11:28.900Z,63.60
2018-04-14T23:13:57.500Z,62.42
2018-04-14T23:16:26.319Z,63.77
2018-04-14T23:18:54.554Z,63.72
2018-04-14T23:21:22.683Z,66.87
2018-04-14T23:23:50.884Z,66.03
2018-04-14T23:26:20.755Z,61.83
2018-04-14T23:28:50.654Z,65.60
2018-04-14T23:31:18.760Z,62.33
2018-04-14T23:33:46.967Z,62.73
2018-04-14T23:36:15.166Z,63.15
2018-04-14T23:38:44.033Z,64.45
2018-04-14T23:41:12.961Z,63.47
2018-04-14T23:43:41.099Z,66.22
2018-04-14T23:46:13.179Z,66.62
2018-04-14T23:48:43.358Z,62.63
2018-04-14T23:51:11.484Z,64.62
2018-04-14T23:53:40.369Z,66.40
2018-04-14T23:56:08.491Z,64.30
2018-04-14T23:58:36.709Z,69.87
